Terminal Aerodrome Forecast
Issued by NWS

Home | Current Version | Previous Version | Text Only | Print | Product List | Glossary On
Versions: 1 2 3 4 5 6 7 8 9 10 11 12 13 14
000
FTUS41 KBTV 251128
TAFPBG
TAF
KPBG 251128Z 2512/2612 13005KT P6SM BKN100
     FM251700 13010KT P6SM VCSH OVC090
     FM251800 13012KT 6SM -RA BR OVC060
     FM252200 11008KT P6SM VCSH OVC035
     FM260100 06006KT P6SM OVC020
     FM260900 02007KT 4SM -RA BR OVC012=

USA.gov is the U.S. government's official web portal to all federal, state and local government web resources and services.